createdAt,value
2022-07-29T00:02:04.242Z,99516.31
2022-07-29T00:04:31.664Z,99526.03
2022-07-29T00:06:59.023Z,99527.94
2022-07-29T00:09:26.208Z,99517.56
2022-07-29T00:11:53.464Z,99525.22
2022-07-29T00:14:24.116Z,99527.47
2022-07-29T00:16:51.227Z,99529.00
2022-07-29T00:19:18.929Z,99523.38
2022-07-29T00:21:46.389Z,99534.31
2022-07-29T00:24:13.719Z,99521.84
2022-07-29T00:26:41.577Z,99538.28
2022-07-29T00:31:56.144Z,99524.53
2022-07-29T00:34:41.903Z,99527.91
2022-07-29T00:37:09.079Z,99529.44
2022-07-29T00:39:36.410Z,99521.53
2022-07-29T00:42:05.745Z,99532.47
2022-07-29T00:44:39.436Z,99531.31
2022-07-29T00:47:07.461Z,99537.38
2022-07-29T00:49:35.165Z,99542.41
2022-07-29T00:52:06.682Z,99547.09
2022-07-29T00:54:34.946Z,99552.97
2022-07-29T00:57:02.663Z,99554.97
2022-07-29T00:59:35.247Z,99559.75
2022-07-29T01:02:04.125Z,99557.06
2022-07-29T01:04:32.556Z,99558.78
2022-07-29T01:07:01.707Z,99558.88
2022-07-29T01:09:43.106Z,99559.34
2022-07-29T01:12:18.202Z,99566.03
2022-07-29T01:14:46.900Z,99564.03
2022-07-29T01:17:37.983Z,99564.84
2022-07-29T01:20:31.711Z,99561.78
2022-07-29T01:23:08.119Z,99561.63
2022-07-29T01:25:59.818Z,99564.56
2022-07-29T01:29:07.428Z,99566.28
2022-07-29T01:31:41.535Z,99571.09
2022-07-29T01:34:49.948Z,99569.28
2022-07-29T01:37:34.105Z,99564.34
2022-07-29T01:40:05.434Z,99563.75
2022-07-29T01:42:41.401Z,99560.66
2022-07-29T01:45:17.251Z,99567.94
2022-07-29T01:48:07.354Z,99566.75
2022-07-29T01:50:44.272Z,99565.31
2022-07-29T01:53:13.829Z,99565.78
2022-07-29T01:55:45.571Z,99564.34
2022-07-29T01:58:15.381Z,99566.84
2022-07-29T02:00:45.704Z,99566.22
2022-07-29T02:03:15.820Z,99564.13
2022-07-29T02:05:47.932Z,99567.81
2022-07-29T02:08:20.875Z,99568.84
2022-07-29T02:10:49.644Z,99561.63
2022-07-29T02:13:19.944Z,99552.03
2022-07-29T02:15:48.012Z,99561.94
2022-07-29T02:18:18.991Z,99571.16
2022-07-29T02:20:50.480Z,99559.53
2022-07-29T02:23:21.057Z,99564.59
2022-07-29T02:25:54.614Z,99570.06
2022-07-29T02:28:25.525Z,99576.00
2022-07-29T02:30:54.524Z,99578.97
2022-07-29T02:33:23.903Z,99583.69
2022-07-29T02:35:52.007Z,99580.28
2022-07-29T02:38:39.604Z,99582.00
2022-07-29T02:41:15.449Z,99580.63
2022-07-29T02:43:44.512Z,99577.84
2022-07-29T02:46:28.436Z,99576.66
2022-07-29T02:49:03.311Z,99578.69
2022-07-29T02:51:43.484Z,99578.94
2022-07-29T02:54:27.278Z,99579.16
2022-07-29T02:56:58.287Z,99588.59
2022-07-29T02:59:28.812Z,99579.41
2022-07-29T03:01:57.056Z,99584.84
2022-07-29T03:04:27.123Z,99584.25
2022-07-29T03:06:54.961Z,99586.72
2022-07-29T03:09:24.317Z,99590.72
2022-07-29T03:11:55.834Z,99592.38
2022-07-29T03:14:24.071Z,99581.25
2022-07-29T03:16:53.712Z,99588.94
2022-07-29T03:19:21.545Z,99583.00
2022-07-29T03:21:49.094Z,99585.81
2022-07-29T03:24:36.504Z,99582.13
2022-07-29T03:27:05.498Z,99578.03
2022-07-29T03:29:34.526Z,99577.69
2022-07-29T03:32:08.111Z,99574.72
2022-07-29T03:34:37.654Z,99584.13
2022-07-29T03:37:07.095Z,99577.53
2022-07-29T03:39:41.702Z,99579.78
2022-07-29T03:42:11.715Z,99580.78
2022-07-29T03:44:42.149Z,99577.84
2022-07-29T03:47:11.149Z,99583.00
2022-07-29T03:49:39.392Z,99585.44
2022-07-29T03:52:07.297Z,99584.88
2022-07-29T03:54:34.946Z,99588.97
2022-07-29T03:57:07.002Z,99586.47
2022-07-29T03:59:35.236Z,99588.38
2022-07-29T04:02:04.818Z,99601.75
2022-07-29T04:04:35.940Z,99594.16
2022-07-29T04:07:04.293Z,99594.47
2022-07-29T04:09:31.407Z,99598.38
2022-07-29T04:12:02.947Z,99600.41
2022-07-29T04:14:33.178Z,99608.47
2022-07-29T04:17:01.712Z,99610.03
2022-07-29T04:23:56.359Z,99595.81
2022-07-29T04:26:23.433Z,99601.25
2022-07-29T04:28:50.523Z,99608.13
2022-07-29T04:31:19.328Z,99610.41
2022-07-29T04:33:49.566Z,99611.31
2022-07-29T04:36:28.893Z,99616.88
2022-07-29T04:38:56.953Z,99614.22
2022-07-29T04:41:23.908Z,99619.28
2022-07-29T04:44:02.127Z,99619.28
2022-07-29T04:46:29.429Z,99620.38
2022-07-29T04:48:56.716Z,99620.41
2022-07-29T04:51:31.434Z,99623.47
2022-07-29T04:53:58.521Z,99619.81
2022-07-29T04:56:25.557Z,99611.28
2022-07-29T04:58:52.626Z,99614.72
2022-07-29T05:01:20.075Z,99625.34
2022-07-29T05:03:47.710Z,99622.09
2022-07-29T05:06:15.027Z,99604.25
2022-07-29T05:08:42.653Z,99605.13
2022-07-29T05:11:11.524Z,99600.56
2022-07-29T05:13:45.790Z,99595.97
2022-07-29T05:16:15.254Z,99606.47
2022-07-29T05:18:51.479Z,99603.78
2022-07-29T05:21:18.716Z,99623.69
2022-07-29T05:23:46.397Z,99612.81
2022-07-29T05:26:13.932Z,99623.31
2022-07-29T05:28:41.668Z,99599.00
2022-07-29T05:31:11.867Z,99597.91
2022-07-29T05:33:47.552Z,99615.13
2022-07-29T05:36:17.342Z,99606.91
2022-07-29T05:39:00.632Z,99610.88
2022-07-29T05:41:34.113Z,99607.91
2022-07-29T05:44:02.874Z,99600.50
2022-07-29T05:46:33.300Z,99600.09
2022-07-29T05:49:32.866Z,99615.56
2022-07-29T05:52:00.261Z,99593.38
2022-07-29T05:54:27.344Z,99606.88
2022-07-29T05:56:54.508Z,99609.59
2022-07-29T05:59:21.516Z,99611.16
2022-07-29T06:01:48.700Z,99613.16
2022-07-29T06:04:15.985Z,99610.19
2022-07-29T06:06:43.269Z,99613.44
2022-07-29T06:09:12.653Z,99620.22
2022-07-29T06:11:40.455Z,99618.75
2022-07-29T06:14:07.452Z,99613.81
2022-07-29T06:16:34.555Z,99611.28
2022-07-29T06:19:01.707Z,99613.88
2022-07-29T06:21:28.764Z,99609.59
2022-07-29T06:23:56.110Z,99612.09
2022-07-29T06:26:30.690Z,99610.25
2022-07-29T06:28:58.763Z,99606.69
2022-07-29T06:31:25.817Z,99612.25
2022-07-29T06:33:54.661Z,99594.31
2022-07-29T06:36:25.053Z,99617.31
2022-07-29T06:38:52.451Z,99594.91
2022-07-29T06:41:20.889Z,99601.34
2022-07-29T06:43:52.479Z,99599.28
2022-07-29T06:46:23.495Z,99594.38
2022-07-29T06:48:58.100Z,99586.00
2022-07-29T06:51:25.355Z,99589.56
2022-07-29T06:54:00.237Z,99590.19
2022-07-29T06:56:38.429Z,99589.56
2022-07-29T06:59:10.729Z,99591.25
2022-07-29T07:01:38.661Z,99597.22
2022-07-29T07:04:06.440Z,99586.16
2022-07-29T07:06:33.778Z,99592.00
2022-07-29T07:09:00.840Z,99602.88
2022-07-29T07:11:30.459Z,99592.97
2022-07-29T07:14:02.591Z,99609.53
2022-07-29T07:16:30.891Z,99598.63
2022-07-29T07:18:57.982Z,99600.84
2022-07-29T07:21:25.120Z,99600.59
2022-07-29T07:23:52.145Z,99595.22
2022-07-29T07:26:19.113Z,99595.88
2022-07-29T07:28:46.221Z,99608.00
2022-07-29T07:31:13.391Z,99607.28
2022-07-29T07:33:40.464Z,99609.03
2022-07-29T07:36:07.486Z,99595.28
2022-07-29T07:38:34.617Z,99596.16
2022-07-29T07:41:02.055Z,99602.22
2022-07-29T07:43:29.214Z,99596.28
2022-07-29T07:45:56.393Z,99587.16
2022-07-29T07:48:23.345Z,99588.75
2022-07-29T07:50:51.719Z,99603.22
2022-07-29T07:53:18.960Z,99605.50
2022-07-29T07:58:33.860Z,99600.31
2022-07-29T08:01:01.034Z,99601.28
2022-07-29T08:03:28.340Z,99605.53
2022-07-29T08:05:55.481Z,99601.25
2022-07-29T08:08:22.705Z,99607.75
2022-07-29T08:10:57.200Z,99610.34
2022-07-29T08:13:28.852Z,99607.09
2022-07-29T08:15:59.184Z,99605.78
2022-07-29T08:18:27.785Z,99598.16
2022-07-29T08:21:02.743Z,99607.38
2022-07-29T08:23:47.508Z,99611.72
2022-07-29T08:26:16.878Z,99607.19
2022-07-29T08:28:50.608Z,99605.38
2022-07-29T08:31:20.439Z,99610.59
2022-07-29T08:33:47.447Z,99591.44
2022-07-29T08:36:14.927Z,99585.06
2022-07-29T08:38:42.403Z,99594.94
2022-07-29T08:41:09.748Z,99591.47
2022-07-29T08:43:38.606Z,99591.56
2022-07-29T08:46:05.843Z,99594.53
2022-07-29T08:48:34.683Z,99593.38
2022-07-29T08:51:03.140Z,99589.81
2022-07-29T08:53:32.935Z,99595.63
2022-07-29T08:56:00.828Z,99593.16
2022-07-29T08:58:32.415Z,99587.88
2022-07-29T09:01:04.560Z,99599.66
2022-07-29T09:03:40.050Z,99602.09
2022-07-29T09:06:07.349Z,99592.03
2022-07-29T09:08:35.091Z,99586.13
2022-07-29T09:11:05.543Z,99587.06
2022-07-29T09:13:33.286Z,99584.38
2022-07-29T09:16:02.521Z,99591.50
2022-07-29T09:18:39.677Z,99580.78
2022-07-29T09:21:27.802Z,99582.88
2022-07-29T09:24:05.773Z,99586.66
2022-07-29T09:26:34.543Z,99588.88
2022-07-29T09:29:11.052Z,99594.09
2022-07-29T09:31:40.857Z,99584.59
2022-07-29T09:34:09.162Z,99580.03
2022-07-29T09:36:47.319Z,99587.44
2022-07-29T09:39:19.890Z,99589.22
2022-07-29T09:41:50.401Z,99590.09
2022-07-29T09:44:17.815Z,99595.91
2022-07-29T09:47:07.370Z,99591.31
2022-07-29T09:49:36.602Z,99591.25
2022-07-29T09:52:08.460Z,99595.78
2022-07-29T09:54:40.040Z,99604.16
2022-07-29T09:57:10.866Z,99594.69
2022-07-29T10:00:11.161Z,99605.66
2022-07-29T10:02:44.528Z,99602.25
2022-07-29T10:05:25.561Z,99591.53
2022-07-29T10:07:57.321Z,99594.22
2022-07-29T10:10:28.441Z,99591.28
2022-07-29T10:13:12.222Z,99587.63
2022-07-29T10:15:46.295Z,99587.13
2022-07-29T10:18:18.639Z,99590.66
2022-07-29T10:20:48.465Z,99588.69
2022-07-29T10:23:15.734Z,99594.25
2022-07-29T10:25:46.401Z,99590.16
2022-07-29T10:28:16.422Z,99595.69
2022-07-29T10:30:45.916Z,99591.53
2022-07-29T10:33:50.074Z,99588.94
2022-07-29T10:36:25.319Z,99588.13
2022-07-29T10:39:10.816Z,99588.75
2022-07-29T10:41:57.621Z,99588.75
2022-07-29T10:44:26.688Z,99584.31
2022-07-29T10:46:54.710Z,99584.75
2022-07-29T10:49:27.947Z,99580.16
2022-07-29T10:52:05.828Z,99588.50
2022-07-29T10:54:44.166Z,99582.66
2022-07-29T10:57:26.022Z,99584.72
2022-07-29T11:00:11.124Z,99590.16
2022-07-29T11:02:43.500Z,99581.97
2022-07-29T11:05:14.978Z,99580.63
2022-07-29T11:08:20.127Z,99592.88
2022-07-29T11:10:49.433Z,99585.41
2022-07-29T11:13:44.260Z,99589.97
2022-07-29T11:16:11.467Z,99588.44
2022-07-29T11:19:14.523Z,99594.88
2022-07-29T11:21:55.220Z,99589.78
2022-07-29T11:27:28.549Z,99585.91
2022-07-29T11:30:03.450Z,99590.88
2022-07-29T11:32:40.916Z,99589.91
2022-07-29T11:35:19.265Z,99590.38
2022-07-29T11:38:23.872Z,99597.63
2022-07-29T11:41:27.202Z,99601.34
2022-07-29T11:43:59.318Z,99595.84
2022-07-29T11:46:50.090Z,99596.66
2022-07-29T11:52:14.840Z,99599.91
2022-07-29T11:54:58.511Z,99594.13
2022-07-29T11:57:36.373Z,99595.75
2022-07-29T12:03:05.250Z,99588.69
2022-07-29T12:05:36.924Z,99594.13
2022-07-29T12:07:03.437Z,99594.13
2022-07-29T12:07:03.676Z,99596.34
2022-07-29T12:08:14.919Z,99599.41
2022-07-29T12:10:43.644Z,99575.84
2022-07-29T12:13:11.949Z,99571.34
2022-07-29T12:15:47.221Z,99582.72
2022-07-29T12:18:19.089Z,99572.13
2022-07-29T12:20:47.996Z,99572.63
2022-07-29T12:23:17.472Z,99578.19
2022-07-29T12:25:49.858Z,99576.81
2022-07-29T12:28:26.908Z,99578.69
2022-07-29T12:30:59.323Z,99574.38
2022-07-29T12:33:32.037Z,99562.44
2022-07-29T12:36:12.857Z,99568.66
2022-07-29T12:38:45.666Z,99583.09
2022-07-29T12:41:13.980Z,99569.94
2022-07-29T12:43:54.031Z,99567.09
2022-07-29T12:46:21.495Z,99571.69
2022-07-29T12:48:56.197Z,99574.00
2022-07-29T12:51:49.638Z,99575.53
2022-07-29T12:54:19.496Z,99570.97
2022-07-29T12:56:46.895Z,99566.25
2022-07-29T12:59:19.359Z,99576.44
2022-07-29T13:01:49.676Z,99568.09
2022-07-29T13:04:55.704Z,99568.56
2022-07-29T13:07:54.675Z,99577.03
2022-07-29T13:10:24.359Z,99567.88
2022-07-29T13:13:12.871Z,99574.94
2022-07-29T13:15:43.226Z,99571.66
2022-07-29T13:18:33.134Z,99576.53
2022-07-29T13:21:12.947Z,99573.78
2022-07-29T13:23:40.272Z,99563.38
2022-07-29T13:26:17.293Z,99566.16
2022-07-29T13:28:44.466Z,99569.50
2022-07-29T13:31:11.977Z,99564.69
2022-07-29T13:33:39.032Z,99570.53
2022-07-29T13:36:06.477Z,99575.03
2022-07-29T13:38:35.747Z,99569.97
2022-07-29T13:41:03.141Z,99569.72
2022-07-29T13:43:30.403Z,99572.84
2022-07-29T13:45:59.746Z,99569.06
2022-07-29T13:48:26.758Z,99576.22
2022-07-29T13:50:53.731Z,99578.69
2022-07-29T13:53:27.018Z,99575.38
2022-07-29T13:55:54.959Z,99577.53
2022-07-29T13:58:21.943Z,99577.50
2022-07-29T14:00:49.253Z,99573.38
2022-07-29T14:03:16.620Z,99577.50
2022-07-29T14:05:43.807Z,99572.03
2022-07-29T14:08:11.158Z,99568.97
2022-07-29T14:10:38.357Z,99564.53
2022-07-29T14:13:05.520Z,99567.22
2022-07-29T14:15:48.897Z,99564.97
2022-07-29T14:18:15.903Z,99557.28
2022-07-29T14:20:42.933Z,99555.13
2022-07-29T14:23:10.002Z,99560.94
2022-07-29T14:25:37.144Z,99568.38
2022-07-29T14:28:08.184Z,99571.22
2022-07-29T14:30:35.374Z,99564.13
2022-07-29T14:33:04.221Z,99563.56
2022-07-29T14:35:31.245Z,99564.75
2022-07-29T14:37:58.358Z,99559.06
2022-07-29T14:40:26.734Z,99555.75
2022-07-29T14:42:53.751Z,99562.66
2022-07-29T14:45:20.761Z,99552.03
2022-07-29T19:43:51.760Z,99683.03
2022-07-29T19:46:24.577Z,99687.03
2022-07-29T19:48:53.245Z,99675.38
2022-07-29T19:51:20.975Z,99679.16
2022-07-29T19:53:49.198Z,99681.25
2022-07-29T19:56:16.475Z,99677.94
2022-07-29T19:58:44.802Z,99677.13
2022-07-29T20:01:23.200Z,99678.41
2022-07-29T20:03:55.981Z,99676.56
2022-07-29T20:06:23.587Z,99675.50
2022-07-29T20:08:58.979Z,99686.56
2022-07-29T20:11:37.239Z,99679.34
2022-07-29T20:14:05.522Z,99688.81
2022-07-29T20:16:32.683Z,99683.38
2022-07-29T20:18:59.864Z,99693.63
2022-07-29T20:21:26.941Z,99693.03
2022-07-29T20:24:01.287Z,99689.16
2022-07-29T20:26:28.986Z,99692.69
2022-07-29T20:28:56.606Z,99692.69
2022-07-29T20:31:25.116Z,99700.25
2022-07-29T20:33:52.471Z,99697.59
2022-07-29T20:36:23.377Z,99694.50
2022-07-29T20:38:52.002Z,99699.13
2022-07-29T20:41:19.848Z,99694.03
2022-07-29T20:43:53.054Z,99700.66
2022-07-29T20:46:20.383Z,99712.53
2022-07-29T20:48:50.289Z,99692.25
2022-07-29T20:51:17.769Z,99707.34
2022-07-29T20:53:45.140Z,99708.88
2022-07-29T20:56:13.368Z,99722.44
2022-07-29T20:58:46.366Z,99720.03
2022-07-29T21:01:17.232Z,99717.34
2022-07-29T21:03:47.926Z,99724.41
2022-07-29T21:06:16.289Z,99724.03
2022-07-29T21:08:44.095Z,99730.06
2022-07-29T21:11:14.549Z,99739.00
2022-07-29T21:13:41.954Z,99731.00
2022-07-29T21:16:14.779Z,99740.75
2022-07-29T21:18:46.195Z,99751.13
2022-07-29T21:21:15.752Z,99749.50
2022-07-29T21:23:44.158Z,99754.09
2022-07-29T21:26:13.939Z,99754.09
2022-07-29T21:28:40.988Z,99752.06
2022-07-29T21:31:14.044Z,99758.53
2022-07-29T21:33:43.471Z,99750.06
2022-07-29T21:36:44.014Z,99757.56
2022-07-29T21:38:59.927Z,99756.13
2022-07-29T21:41:27.123Z,99753.88
2022-07-29T21:43:55.010Z,99761.44
2022-07-29T21:46:25.986Z,99760.81
2022-07-29T21:48:53.468Z,99764.00
2022-07-29T21:51:21.259Z,99760.09
2022-07-29T21:53:48.641Z,99770.53
2022-07-29T21:56:15.957Z,99771.38
2022-07-29T21:58:45.280Z,99769.13
2022-07-29T22:01:12.570Z,99766.88
2022-07-29T22:03:40.570Z,99759.66
2022-07-29T22:06:08.082Z,99771.53
2022-07-29T22:08:40.511Z,99772.69
2022-07-29T22:11:09.162Z,99779.53
2022-07-29T22:13:37.019Z,99782.06
2022-07-29T22:16:04.510Z,99769.81
2022-07-29T22:18:36.887Z,99780.81
2022-07-29T22:21:14.480Z,99778.19
2022-07-29T22:23:45.534Z,99784.03
2022-07-29T22:26:13.294Z,99785.69
2022-07-29T22:28:40.657Z,99776.56
2022-07-29T22:31:08.185Z,99776.63
2022-07-29T22:33:35.598Z,99788.88
2022-07-29T22:36:05.865Z,99778.72
2022-07-29T22:38:33.392Z,99797.09
2022-07-29T22:41:01.485Z,99790.44
2022-07-29T22:43:30.916Z,99796.53
2022-07-29T22:45:58.104Z,99792.63
2022-07-29T22:48:25.910Z,99798.50
2022-07-29T22:50:53.593Z,99789.38
2022-07-29T22:53:21.088Z,99795.63
2022-07-29T22:55:48.218Z,99805.63
2022-07-29T22:58:15.497Z,99801.09
2022-07-29T23:00:45.708Z,99806.94
2022-07-29T23:03:13.096Z,99809.09
2022-07-29T23:05:41.337Z,99814.50
2022-07-29T23:08:08.387Z,99819.31
2022-07-29T23:10:35.637Z,99822.25
2022-07-29T23:13:02.710Z,99822.44
2022-07-29T23:15:29.880Z,99822.06
2022-07-29T23:17:59.247Z,99819.22
2022-07-29T23:20:26.716Z,99820.25
2022-07-29T23:22:53.885Z,99812.63
2022-07-29T23:25:21.393Z,99815.13
2022-07-29T23:27:51.622Z,99817.22
2022-07-29T23:30:18.700Z,99816.00
2022-07-29T23:32:46.041Z,99815.00
2022-07-29T23:35:13.171Z,99813.13
2022-07-29T23:37:40.246Z,99817.09
2022-07-29T23:40:13.636Z,99828.56
2022-07-29T23:42:42.432Z,99819.44
2022-07-29T23:45:11.863Z,99820.69
2022-07-29T23:47:39.415Z,99822.75
2022-07-29T23:50:07.994Z,99812.81
2022-07-29T23:52:35.626Z,99816.56
2022-07-29T23:55:37.032Z,99813.69
2022-07-29T23:57:50.409Z,99807.06
